Tiempo atmosférico en la estación meteorológica de Águilas, Murcia (26 m.)



Fecha
DESCASC
Temp. máxima en grados centígrados (hora)
DESCASC
Temp. mínima en grados centígrados (hora)
DESCASC
Temp. media en grados centígrados
DESCASC
Racha de viento máxima en m/sg (hora)
DESCASC
Velocidad máxima media en intervalos de 10 minutos(hora)
DESCASC
Precipitaciones diarias en mm
DESCASC
Precipitaciones de 00:00 a 06:00 en mm
DESCASC
Precipitaciones de 06:00 a 12:00 en mm
DESCASC
Precipitaciones de 12:00 a 18:00 en mm
DESCASC
Precipitaciones de 18:00 a 24:00 en mm
DESCASC
17-10-2019 25.2 (14:00) 13.9 (06:40) 19.6 4.72 (14:00) 2.78 (14:10) 0 0 0 0 0
16-10-2019 23.8 (15:20) 13.9 (06:00) 18.8 5.56 (12:50) 2.78 (12:40) 0 0 0 0 0
15-10-2019 23.8 (12:00) 16.5 (23:50) 20.1 9.72 (00:10) 5.56 (00:10) 0 0 0 0 0
14-10-2019 28 (17:20) 18.1 (07:30) 23.1 16.39 (22:30) 8.89 (22:30) 0 0 0 0 0
13-10-2019 26.5 (14:10) 19 (00:00) 22.8 5.83 (16:20) 2.78 (11:30) 0 0 0 0 0
12-10-2019 28 (14:00) 19 (00:00) 23.5 6.39 (16:50) 3.33 (16:20) 0 0 0 0 0
11-10-2019 27.5 (12:50) 18.4 (00:00) 22.9 10 (13:10) 6.67 (15:10) 0 0 0 0 0
10-10-2019 27.1 (13:00) 20 (00:00) 23.6 9.72 (15:10) 6.39 (16:10) 0 0 0 0 0
09-10-2019 26.5 (16:10) 18.4 (00:00) 22.4 6.39 (14:50) 3.33 (12:50) 0 0 0 0 0
08-10-2019 26 (15:10) 20.1 (00:00) 23.1 6.67 (13:20) 3.61 (12:40) 0 0 0 0 0
07-10-2019 29.4 (14:00) 18.5 (00:00) 23.9 7.78 (17:10) 5.28 (17:00) 0 0 0 0 0
06-10-2019 26.9 (12:30) 17.7 (00:00) 22.3 5 (14:20) 2.78 (14:10) 0 0 0 0 0
05-10-2019 26.9 (13:10) 17.9 (00:00) 22.4 4.72 (13:30) 2.78 (15:10) 0 0 0 0 0
04-10-2019 28.1 (13:40) 17.9 (00:00) 23 5.28 (13:40) 3.33 (12:50) 0 0 0 0 0
03-10-2019 27.9 (14:10) 19.3 (00:00) 23.6 6.11 (15:50) 3.61 (15:20) 0 0 0 0 0
02-10-2019 29.6 (11:40) 20.2 (00:00) 24.9 11.11 (00:30) 5.83 (00:30) 0 0 0 0 0
01-10-2019 28.3 (23:40) 21 (00:00) 24.6 9.72 (23:40) 5 (23:20) 0 0 0 0 0
30-09-2019 27.1 (11:10) 20.5 (00:00) 23.8 4.72 (13:20) 2.78 (16:10) 0 0 0 0 0
29-09-2019 26.9 (15:10) 20.3 (00:00) 23.6 5.28 (13:50) 3.33 (13:10) 0 0 0 0 0
28-09-2019 27.1 (16:00) 20 (00:00) 23.6 6.39 (12:00) 4.17 (12:10) 0 0 0 0 0
27-09-2019 27 (12:50) 21 (00:00) 24 6.11 (13:30) 3.33 (13:30) 0 0 0 0 0
26-09-2019 27.7 (11:10) 19.7 (00:00) 23.7 7.78 (14:40) 5 (14:50) 0 0 0 0 0
25-09-2019 28.7 (17:10) 20.2 (00:00) 24.5 5 (14:50) 3.06 (15:00) 0 0 0 0 0
24-09-2019 27.8 (12:10) 19.5 (00:00) 23.6 6.39 (13:10) 3.06 (13:10) 0 0 0 0 0
23-09-2019 28.6 (16:50) 21.2 (00:00) 24.9 6.11 (14:20) 3.33 (15:20) 0 0 0 0 0
22-09-2019 30 (15:40) 22.1 (00:00) 26.1 6.39 (14:20) 3.61 (13:30) 0 0 0 0 0
21-09-2019 28 (15:00) 22.7 (00:00) 25.4 5.28 (15:40) 3.61 (15:50) 0 0 0 0 0
20-09-2019 27.5 (15:50) 22 (00:00) 24.8 9.17 (13:20) 5.83 (14:10) 0 0 0 0 0

Gráficas

Temp. máximas Temp. mínimas Temp. medias Precipitaciones Rachas de viento máximas Velocidades máximas media en intervalos de 10 minutos

Datos horarios

Fecha y hora oficial Temperatura (ºC) Velocidad del viento (km/h) Dirección del viento Racha (km/h) Dirección de racha Precipitación (mm) Presión (hPa) Tendencia (hPa) Humedad (%)
2019-10-19 23:00:00 19.6 3 Norte 9 Nordeste 0 1003.7 0.5 66
2019-10-19 22:00:00 20.5 6 Norte 9 Norte 0 1003.4 -0.1 64
2019-10-19 21:00:00 22.3 3 Oeste 20 Sudoeste 0 1003.4 -0.7 59
2019-10-19 20:00:00 23.2 12 Sudoeste 36 Sudoeste 0 1003.2 -1.3 58
2019-10-19 19:00:00 23.2 13 Sudoeste 36 Sur 0 1003.5 -1.9 59
2019-10-19 18:00:00 23.5 9 Sur 19 Sur 0 1004.1 -2.1 65
2019-10-19 17:00:00 23.8 8 Sudeste 16 Sur 0 1004.5 -2.6 64
2019-10-19 16:00:00 24.1 8 Sur 18 Sur 0 1005.4 -2.4 65
2019-10-19 15:00:00 24.6 8 Sudoeste 19 Sur 0 1006.2 -2.2 59
2019-10-19 14:00:00 24.6 9 Sudoeste 18 Sudoeste 0 1007.1 -1.5 49
2019-10-19 13:00:00 24.8 7 Sur 14 Sur 0 1007.8 -0.8 50
2019-10-19 12:00:00 24.5 6 Sur 14 Sudeste 0 1008.4 0 51
2019-10-19 11:00:00 24 7 Sur 13 Sur 0 1008.6 0.3 50
2019-10-19 10:00:00 22.5 3 Nordeste 7 Nordeste 0 1008.6 0.4 58
2019-10-19 09:00:00 18.2 5 Nordeste 12 Nordeste 0 1008.4 0.2 72
2019-10-19 08:00:00 16.3 5 Nordeste 10 Nordeste 0 1008.3 0 80
2019-10-19 07:00:00 16.2 3 Este 9 Nordeste 0 1008.2 -0.7 78
2019-10-19 06:00:00 16.1 3 Norte 6 Norte 0 1008.2 -1.4 79
2019-10-19 05:00:00 16.9 2 Nordeste 9 Norte 0 1008.3 -1.6 77
2019-10-19 04:00:00 16.9 5 Norte 8 Nordeste 0 1008.9 -1.1 77
2019-10-19 03:00:00 16.7 4 Norte 8 Norte 0 1009.6 -1 77
2019-10-19 02:00:00 16.8 0 Calma 6 Norte 0 1009.9 -0.8 71
2019-10-19 01:00:00 17.7 3 Norte 10 Norte 0 1010 -0.9 62
2019-10-19 00:00:00 19 2 Nordeste 10 Nordeste 0 1010.6 -0.4 69
2019-10-18 23:00:00 19.6 5 Nordeste 10 Este 0 1010.7 -0.4 64
2019-10-18 22:00:00 20 6 Norte 10 Norte 0 1010.9 -0.2 64
2019-10-18 21:00:00 20.5 6 Este 12 Este 0 1011 -0.5 73
2019-10-18 20:00:00 21.3 3 Nordeste 8 Este 0 1011.1 -0.9 69
2019-10-18 19:00:00 22.1 3 Sudeste 9 Sudoeste 0 1011.1 -1.1 65
2019-10-18 18:00:00 23.9 3 Sudeste 14 Sudoeste 0 1011.5 -1.3 56
2019-10-18 17:00:00 24.2 7 Sur 14 Sur 0 1012 -1.5 56
2019-10-18 16:00:00 24.8 7 Sudoeste 17 Sudoeste 0 1012.2 -1.8 52
2019-10-18 15:00:00 24.1 9 Sur 18 Sudoeste 0 1012.8 -1.4 51
2019-10-18 14:00:00 24.6 8 Sur 17 Sur 0 1013.5 -0.8 47
2019-10-18 13:00:00 25 9 Sudeste 18 Sur 0 1014 0 50
2019-10-18 12:00:00 24.3 8 Sudeste 13 Sudeste 0 1014.2 0.5 53
2019-10-18 11:00:00 24 4 Sur 7 Sur 0 1014.3 1.1 56
2019-10-18 10:00:00 20.9 2 Norte 6 Norte 0 1014 0.8 56
2019-10-18 09:00:00 18.1 6 Norte 9 Nordeste 0 1013.7 0.2 53
2019-10-18 08:00:00 16.2 5 Nordeste 9 Nordeste 0 1013.2 -0.3 61
2019-10-18 07:00:00 16.1 5 Nordeste 10 Nordeste 0 1013.2 -0.6 68
2019-10-18 06:00:00 17.7 8 Norte 11 Nordeste 0 1013.5 -0.9 72
2019-10-18 05:00:00 16.9 4 Nordeste 9 Nordeste 0 1013.5 -1 68
2019-10-18 04:00:00 16.6 2 Nordeste 9 Nordeste 0 1013.8 -0.9 65
2019-10-18 03:00:00 17.4 4 Nordeste 8 Nordeste 0 1014.4 -0.5 62
2019-10-18 02:00:00 17 2 Nordeste 7 Nordeste 0 1014.5 -0.2 56
2019-10-18 01:00:00 17.9 3 Nordeste 8 Norte 0 1014.7 0.4 45
2019-10-18 00:00:00 17.9 0 Calma 9 Nordeste 0 1014.9 1 46
2019-10-17 23:00:00 18.8 2 Nordeste 11 Nordeste 0 1014.7 1.3 43
2019-10-17 22:00:00 20 6 Norte 10 Norte 0 1014.3 1.1 42
2019-10-17 21:00:00 20.7 5 Nordeste 8 Este 0 1013.9 0.6 58
2019-10-17 20:00:00 21.7 4 Sudeste 8 Este 0 1013.4 0.1 59
2019-10-17 19:00:00 22.3 5 Este 9 Este 0 1013.2 -0.6 57
2019-10-17 18:00:00 23.6 4 Sur 14 Sudoeste 0 1013.3 -0.9 53
2019-10-17 17:00:00 24.4 5 Sur 15 Sur 0 1013.3 -1.4 47
2019-10-17 16:00:00 25.1 6 Sudoeste 16 Sur 0 1013.8 -1.4 39
2019-10-17 15:00:00 24.6 8 Sur 17 Sur 0 1014.2 -1.1 31
2019-10-17 14:00:00 25.1 9 Sur 17 Sur 0 1014.7 -0.4 30
2019-10-17 13:00:00 24.1 6 Sudeste 14 Sur 0 1015.2 0.3 36
2019-10-17 12:00:00 23.6 6 Sur 12 Sur 0 1015.3 1 42
2019-10-17 11:00:00 23.9 3 Sur 6 Sudeste 0 1015.1 1.2 40
2019-10-17 10:00:00 22.2 0 Calma 8 Nordeste 0 1014.9 1.2 49
2019-10-17 09:00:00 16.8 5 Nordeste 9 Nordeste 0 1014.3 0.7 66
2019-10-17 08:00:00 14.6 5 Norte 8 Norte 0 1013.9 -0.1 72
2019-10-17 07:00:00 14.7 6 Norte 7 Norte 0 1013.7 -0.7 73
2019-10-17 06:00:00 14.2 2 Noroeste 6 Norte 0 1013.6 -1 75
2019-10-17 05:00:00 14.8 0 Calma 8 Norte 0 1014 -0.7 75
2019-10-17 04:00:00 15 5 Noroeste 8 Norte 0 1014.4 -0.6 74
2019-10-17 03:00:00 15.4 5 Norte 8 Norte 0 1014.6 -0.6 73
2019-10-17 02:00:00 15.6 0 Calma 10 Nordeste 0 1014.7 -0.2 67
2019-10-17 01:00:00 15.7 0 Calma 7 Nordeste 0 1015 0.5 62
2019-10-17 00:00:00 16.1 2 Norte 6 Nordeste 0 1015.2 1.1 58
2019-10-16 23:00:00 17 4 Nordeste 9 Norte 0 1014.9 0.8 57
2019-10-16 22:00:00 17.6 4 Norte 9 Norte 0 1014.5 0.4 61
2019-10-16 21:00:00 18.7 3 Norte 10 Norte 0 1014.1 -0.3 56
2019-10-16 20:00:00 19.8 4 Noroeste 9 Sudoeste 0 1014.1 -0.6 53
2019-10-16 19:00:00 21.1 4 Sudoeste 16 Sur 0 1014.1 -1 46
2019-10-16 18:00:00 22.3 8 Sudoeste 16 Sur 0 1014.4 -1.1 43
2019-10-16 17:00:00 23.1 9 Sudoeste 16 Sudoeste 0 1014.7 -1.8 43
2019-10-16 16:00:00 23.5 8 Sudoeste 18 Sur 0 1015.1 -2.2 40
2019-10-16 15:00:00 23.4 10 Sur 19 Sudeste 0 1015.5 -1.9 45
2019-10-16 14:00:00 23.4 9 Sur 19 Sur 0 1016.5 -1.1 46
2019-10-16 13:00:00 22.8 10 Sur 20 Sur 0 1017.3 0.1 46
2019-10-16 12:00:00 23.2 7 Sur 12 Sur 0 1017.4 0.5 42
2019-10-16 11:00:00 23.3 4 Sur 10 Sudoeste 0 1017.6 1 44
2019-10-16 10:00:00 20.1 2 Noroeste 11 Oeste 0 1017.2 0.7 47
2019-10-16 09:00:00 15.8 3 Noroeste 5 Norte 0 1016.9 0.3 53
2019-10-16 08:00:00 14.7 4 Nordeste 10 Norte 0 1016.6 -0.1 58
2019-10-16 07:00:00 15.1 3 Nordeste 12 Nordeste 0 1016.5 -0.2 56
2019-10-16 06:00:00 13.9 0 Calma 8 Nordeste 0 1016.6 -0.6 57
2019-10-16 05:00:00 14.4 5 Norte 9 Norte 0 1016.7 -0.6 55
2019-10-16 04:00:00 14.3 0 Calma 6 Norte 0 1016.7 -0.6 55
2019-10-16 03:00:00 15 0 Calma 9 Norte 0 1017.2 -0.2 56
2019-10-16 02:00:00 15.1 3 Sur 6 Norte 0 1017.3 0.1 59
2019-10-16 01:00:00 16 2 Sudeste 7 Noroeste 0 1017.3 0.1 63
2019-10-16 00:00:00 16.5 3 Norte 9 Norte 0 1017.4 0.6 61
2019-10-15 23:00:00 17.1 0 Calma 10 Nordeste 0 1017.2 0.9 59
2019-10-15 22:00:00 18 2 Norte 10 Norte 0 1017.2 1.1 53
2019-10-15 21:00:00 19.1 4 Norte 10 Sur 0 1016.8 1.2 50
2019-10-15 20:00:00 20.5 6 Sur 12 Sur 0 1016.3 0.7 46
2019-10-15 19:00:00 21.5 5 Sudoeste 17 Sur 0 1016.1 0.2 37
2019-10-15 18:00:00 22.5 9 Sudeste 17 Sudoeste 0 1015.6 -0.4 34
2019-10-15 17:00:00 23.3 9 Sur 21 Sudeste 0 1015.6 -0.8 32
2019-10-15 16:00:00 23.5 11 Sur 23 Sudeste 0 1015.9 -1 31
2019-10-15 15:00:00 23 13 Sur 24 Sudeste 0 1016 -1.2 32
2019-10-15 14:00:00 23.5 10 Sudeste 22 Sudeste 0 1016.4 -0.7 28
2019-10-15 13:00:00 23.7 12 Sur 23 Sudoeste 0 1016.9 0.5 25
2019-10-15 12:00:00 23.6 8 Oeste 21 Noroeste 0 1017.2 1.6 23
2019-10-15 11:00:00 21.1 12 Noroeste 19 Noroeste 0 1017.1 2.3 28
2019-10-15 10:00:00 19.6 13 Noroeste 26 Noroeste 0 1016.4 1.8 32
2019-10-15 09:00:00 17.6 9 Oeste 23 Noroeste 0 1015.6 1.6 41
2019-10-15 08:00:00 16.8 15 Noroeste 23 Noroeste 0 1014.8 1.5 43
2019-10-15 07:00:00 17 3 Sudoeste 10 Noroeste 0 1014.6 1.5 45
2019-10-15 06:00:00 17.8 3 Noroeste 10 Norte 0 1014 1.2 45
2019-10-15 05:00:00 18.9 6 Noroeste 13 Noroeste 0 1013.3 0.7 48
2019-10-15 04:00:00 19.6 4 Sudoeste 17 Noroeste 0 1013.1 0.9 45
2019-10-15 03:00:00 19.6 8 Oeste 19 Noroeste 0 1012.8 0.9 43
2019-10-15 02:00:00 21 10 Noroeste 28 Noroeste 0 1012.6 1.7 39
2019-10-15 01:00:00 22 16 Noroeste 35 Oeste 0 1012.2 2.3 35
2019-10-15 00:00:00 23.3 22 Oeste 50 Noroeste 0 1011.9 2.7 31
2019-10-14 23:00:00 23.8 24 Oeste 59 Noroeste 0 1010.9 2.4 30
2019-10-14 22:00:00 25.2 28 Noroeste 51 Noroeste 0 1009.9 2.1 28
2019-10-14 21:00:00 25.7 17 Noroeste 31 Noroeste 0 1009.2 1.7 27
2019-10-14 20:00:00 24.7 7 Oeste 13 Sudoeste 0 1008.5 1.1 55
2019-10-14 19:00:00 26.5 4 Noroeste 14 Sudoeste 0 1007.8 -0.3 51
2019-10-14 18:00:00 27.4 3 Nordeste 18 Este 0 1007.5 -1.2 44
2019-10-14 17:00:00 27.8 13 Este 22 Sudeste 0 1007.4 -2.2 45
2019-10-14 16:00:00 26.6 13 Este 25 Sudeste 0 1008.1 -2 53
2019-10-14 15:00:00 26.8 9 Sudeste 18 Sur 0 1008.7 -1.7 53
2019-10-14 14:00:00 26.1 9 Sur 21 Sudoeste 0 1009.6 -0.8 56
2019-10-14 13:00:00 27 12 Sur 19 Sur 0 1010.1 -0.8 49
2019-10-14 12:00:00 26.1 8 Oeste 20 Sudoeste 0 1010.4 0.2 51
2019-10-14 11:00:00 25.3 8 Noroeste 18 Noroeste 0 1010.4 1.4 49
2019-10-14 10:00:00 22.5 10 Norte 21 Noroeste 0 1010.9 1.8 60
2019-10-14 09:00:00 19.1 8 Norte 19 Noroeste 0 1010.2 1.2 66
2019-10-14 08:00:00 18.7 5 Norte 7 Norte 0 1009 -0.5 66
2019-10-14 07:00:00 18.4 3 Este 9 Noroeste 0 1009.1 -0.8 70
2019-10-14 06:00:00 19.3 5 Norte 12 Nordeste 0 1009 -1.9 68
2019-10-14 05:00:00 18.9 0 Calma 11 Norte 0 1009.5 -2.4 70
2019-10-14 04:00:00 19.6 4 Nordeste 8 Este 0 1009.9 -2.5 72
2019-10-14 03:00:00 20.1 4 Nordeste 8 Nordeste 0 1010.9 -1.7 76
2019-10-14 02:00:00 21 5 Noroeste 12 Noroeste 0 1011.9 -0.5 77
2019-10-14 01:00:00 20.8 6 Norte 10 Norte 0 1012.4 0.3 79
2019-10-14 00:00:00 20.9 3 Norte 9 Norte 0 1012.6 0.3 77
2019-10-13 23:00:00 21.3 3 Noroeste 6 Norte 0 1012.4 0.3 77
2019-10-13 22:00:00 22.1 4 Nordeste 10 Nordeste 0 1012.1 0.2 79
2019-10-13 21:00:00 22.5 4 Nordeste 10 Nordeste 0 1012.3 0.1 77
2019-10-13 20:00:00 23.4 4 Sudeste 9 Sudeste 0 1012.1 -0.4 73
2019-10-13 19:00:00 24.3 5 Sudeste 10 Sudeste 0 1011.9 -0.5 69
2019-10-13 18:00:00 24.9 5 Sudeste 17 Sudeste 0 1012.2 -0.4 66
2019-10-13 17:00:00 25.6 8 Sur 21 Sudeste 0 1012.5 -0.9 65
2019-10-13 16:00:00 26.2 10 Sur 16 Sur 0 1012.4 -1.6 60
2019-10-13 15:00:00 26.2 8 Sudeste 17 Sudeste 0 1012.6 -1.6 58
2019-10-13 14:00:00 26.4 8 Sur 19 Sudoeste 0 1013.4 -0.6 56
2019-10-13 13:00:00 26.2 9 Sur 19 Sur 0 1014 0.6 59
2019-10-13 12:00:00 25.8 10 Sudoeste 17 Sur 0 1014.2 1.3 59
2019-10-13 11:00:00 25.7 8 Sur 14 Sudoeste 0 1014 1.7 56
2019-10-13 10:00:00 25 0 Calma 8 Norte 0 1013.4 1.4 60
2019-10-13 09:00:00 19.9 4 Noroeste 6 Norte 0 1012.9 1.2 76
2019-10-13 08:00:00 19.3 3 Norte 9 Nordeste 0 1012.3 0.7 74
2019-10-13 07:00:00 19.8 4 Nordeste 9 Nordeste 0 1012 -0.1 75
2019-10-13 06:00:00 19.5 2 Norte 9 Noroeste 0 1011.7 -1.2 78
2019-10-13 05:00:00 20.1 6 Norte 9 Nordeste 0 1011.6 -1.5 79
2019-10-13 04:00:00 19.9 5 Noroeste 7 Norte 0 1012.1 -1 79
2019-10-13 03:00:00 20.3 2 Norte 8 Noroeste 0 1012.9 -0.2 79
2019-10-13 02:00:00 20.8 3 Nordeste 8 Norte 0 1013.1 0.3 77
2019-10-13 01:00:00 21.1 5 Norte 8 Norte 0 1013.1 0.7 78
2019-10-13 00:00:00 21.4 4 Nordeste 6 Este 0 1013.1 0.6 78
2019-10-12 23:00:00 21.9 5 Noroeste 13 Noroeste 0 1012.8 0.4 77
2019-10-12 22:00:00 22.7 3 Norte 8 Norte 0 1012.4 0.3 77
2019-10-12 21:00:00 23.3 3 Noroeste 5 Sudeste 0 1012.5 0.4 77
2019-10-12 20:00:00 23.7 3 Este 8 Sudeste 0 1012.4 0.4 77
2019-10-12 19:00:00 24.6 4 Sur 15 Sudeste 0 1012.1 -0.4 73
2019-10-12 18:00:00 26.1 9 Sur 17 Este 0 1012.1 -1.1 62
2019-10-12 17:00:00 26.6 10 Sudeste 23 Sudeste 0 1012 -1.9 60
2019-10-12 16:00:00 26.6 10 Sudeste 20 Sudeste 0 1012.5 -1.9 58
2019-10-12 15:00:00 27.5 10 Sur 19 Sur 0 1013.2 -1.7 52
2019-10-12 14:00:00 27.9 9 Sur 19 Sudoeste 0 1013.9 -0.9 50
2019-10-12 13:00:00 26.5 5 Sudeste 13 Sudoeste 0 1014.4 0.3 56
2019-10-12 12:00:00 25.6 6 Sudoeste 15 Sudoeste 0 1014.9 1.1 56
2019-10-12 11:00:00 24.5 6 Sudoeste 11 Sudoeste 0 1014.8 1.1 54
2019-10-12 10:00:00 24.4 0 Calma 9 Sur 0 1014.1 0.8 53
2019-10-12 09:00:00 20.1 2 Norte 10 Norte 0 1013.8 0.6 69
2019-10-12 08:00:00 19.3 3 Norte 11 Nordeste 0 1013.7 0.5 72
2019-10-12 07:00:00 19.9 3 Norte 12 Nordeste 0 1013.3 -0.1 70
2019-10-12 06:00:00 19.6 3 Nordeste 7 Nordeste 0 1013.2 -0.9 74
2019-10-12 05:00:00 19.7 4 Nordeste 8 Nordeste 0 1013.2 -1.4 72
2019-10-12 04:00:00 20.1 0 Calma 10 Norte 0 1013.4 -2 73
2019-10-12 03:00:00 20.2 3 Este 6 Noroeste 0 1014.1 -1.4 75
2019-10-12 02:00:00 20.7 3 Norte 9 Noroeste 0 1014.6 -0.8 73
2019-10-12 01:00:00 20.9 0 Calma 8 Norte 0 1015.4 0.2 73
2019-10-12 00:00:00 21.5 3 Norte 7 Norte 0 1015.5 0.8 72
2019-10-11 23:00:00 21.9 4 Nordeste 8 Norte 0 1015.4 0.8 70
2019-10-11 22:00:00 22.5 2 Norte 7 Este 0 1015.2 0.5 69
2019-10-11 21:00:00 22.8 5 Este 16 Nordeste 0 1014.7 0 67
2019-10-11 20:00:00 23.4 8 Este 20 Este 0 1014.6 -0.2 67
2019-10-11 19:00:00 24.5 9 Sudeste 20 Este 0 1014.7 -0.3 63
2019-10-11 18:00:00 25.7 10 Sudeste 23 Este 0 1014.7 -0.6 60
2019-10-11 17:00:00 25.3 12 Sudeste 29 Este 0 1014.8 -1.7 62
2019-10-11 16:00:00 25.4 18 Sudeste 35 Sudeste 0 1015 -2.4 63
2019-10-11 15:00:00 26.9 18 Sudeste 33 Sudeste 0 1015.3 -2.4 51
2019-10-11 14:00:00 26.9 19 Sudeste 36 Sudeste 0 1016.5 -1.5 50
2019-10-11 13:00:00 27.5 15 Este 35 Este 0 1017.4 -0.2 47
2019-10-11 12:00:00 26.8 16 Este 28 Este 0 1017.7 0.6 46
2019-10-11 11:00:00 25.9 15 Este 30 Este 0 1018 1.3 49
2019-10-11 10:00:00 23 3 Noroeste 6 Noroeste 0 1017.6 1 56
2019-10-11 09:00:00 20 0 Calma 5 Este 0 1017.1 0.7 74
2019-10-11 08:00:00 18.6 2 Norte 8 Nordeste 0 1016.7 -0.3 75
2019-10-11 07:00:00 19 0 Calma 6 Noroeste 0 1016.6 -0.6 75
2019-10-11 06:00:00 20.5 4 Norte 10 Nordeste 0 1016.4 -0.9 70
2019-10-11 05:00:00 21 5 Nordeste 11 Norte 0 1017 -0.6 71
2019-10-11 04:00:00 20.8 4 Norte 8 Norte 0 1017.2 -0.5 72
2019-10-11 03:00:00 20.9 3 Nordeste 8 Este 0 1017.3 -0.4 73
2019-10-11 02:00:00 20.9 4 Norte 9 Norte 0 1017.6 -0.1 72
2019-10-11 01:00:00 21.1 3 Norte 10 Nordeste 0 1017.7 0.3 70
2019-10-11 00:00:00 21.7 4 Nordeste 14 Nordeste 0 1017.7 1 66
2019-10-10 23:00:00 22 4 Nordeste 11 Nordeste 0 1017.7 1.4 64
2019-10-10 22:00:00 22.4 6 Nordeste 21 Este 0 1017.4 1.2 64
2019-10-10 21:00:00 22.9 12 Este 21 Este 0 1016.7 0.5 61
2019-10-10 20:00:00 23.2 8 Este 25 Este 0 1016.3 0.3 66
2019-10-10 19:00:00 24.2 12 Este 27 Sudeste 0 1016.2 0.3 63
2019-10-10 18:00:00 25.3 14 Sudeste 30 Sudeste 0 1016.2 0 58
2019-10-10 17:00:00 25.6 20 Sudeste 34 Sudeste 0 1016 -0.8 59
2019-10-10 16:00:00 25.8 22 Sudeste 35 Sudeste 0 1015.9 -1.6 56
2019-10-10 15:00:00 26.1 22 Sudeste 33 Sudeste 0 1016.2 -1.3 55
2019-10-10 14:00:00 26.3 19 Sudeste 30 Sudeste 0 1016.8 -0.8 53
2019-10-10 13:00:00 26.4 17 Sudeste 32 Sudeste 0 1017.5 0.1 51
2019-10-10 12:00:00 26.9 15 Este 31 Sudeste 0 1017.5 0.9 50
2019-10-10 11:00:00 26.6 12 Este 27 Nordeste 0 1017.6 1.7 52
2019-10-10 10:00:00 24.6 13 Este 22 Este 0 1017.4 1.9 59
2019-10-10 09:00:00 21.7 4 Nordeste 8 Norte 0 1016.6 1.3 72
2019-10-10 08:00:00 20.1 4 Norte 7 Norte 0 1015.9 0.9 74
2019-10-10 07:00:00 20.3 5 Norte 8 Nordeste 0 1015.5 0.5 74
2019-10-10 06:00:00 20.4 4 Norte 8 Norte 0 1015.3 0.1 72
2019-10-10 05:00:00 20.5 2 Norte 7 Norte 0 1015 0 72
2019-10-10 04:00:00 20.6 2 Nordeste 9 Nordeste 0 1015 0.1 74
2019-10-10 03:00:00 21.1 5 Nordeste 8 Nordeste 0 1015.2 0.8 73
2019-10-10 02:00:00 21.2 4 Nordeste 8 Nordeste 0 1015 0.7 71
2019-10-10 01:00:00 21.3 4 Nordeste 9 Nordeste 0 1014.9 0.9 73
2019-10-10 00:00:00 21.8 6 Nordeste 10 Nordeste 0 1014.4 1 71
2019-10-09 23:00:00 21.9 3 Nordeste 7 Nordeste 0 1014.3 1.4 70
2019-10-09 22:00:00 22.1 4 Noroeste 5 Norte 0 1014 1.4 71
2019-10-09 21:00:00 22.5 2 Sur 7 Sudeste 0 1013.4 1.3 70
2019-10-09 20:00:00 22.9 4 Sudeste 9 Sudeste 0 1012.9 0.7 68
2019-10-09 19:00:00 23.8 4 Sur 15 Sur 0 1012.6 0.1 64
2019-10-09 18:00:00 24.7 9 Sur 16 Sudeste 0 1012.1 -0.7 57
2019-10-09 17:00:00 25.7 10 Sur 18 Sudeste 0 1012.2 -1.1 50
2019-10-09 16:00:00 26.4 8 Sur 18 Sudeste 0 1012.5 -1.4 44
2019-10-09 15:00:00 24.9 12 Sudeste 23 Sudeste 0 1012.8 -1.4 56
2019-10-09 14:00:00 25.5 9 Sudeste 17 Sudeste 0 1013.3 -0.9 52
2019-10-09 13:00:00 25.5 10 Sur 19 Sudoeste 0 1013.9 0 51
2019-10-09 12:00:00 25.4 9 Sur 14 Sudoeste 0 1014.2 0.8 51
2019-10-09 11:00:00 25.8 3 Sur 9 Oeste 0 1014.2 1 50
2019-10-09 10:00:00 23.2 4 Noroeste 8 Noroeste 0 1013.9 0.7 59
2019-10-09 09:00:00 19.5 3 Noroeste 7 Noroeste 0 1013.4 0.3 70
2019-10-09 08:00:00 18.5 3 Nordeste 9 Nordeste 0 1013.2 0 71
2019-10-09 07:00:00 18.8 4 Norte 10 Norte 0 1013.2 -0.4 76
2019-10-09 06:00:00 19 4 Nordeste 8 Nordeste 0 1013.1 -0.9 77
2019-10-09 05:00:00 18.9 0 Calma 6 Nordeste 0 1013.2 -1 75
2019-10-09 04:00:00 18.8 2 Noroeste 6 Norte 0 1013.6 -0.8 75
2019-10-09 03:00:00 19 0 Calma 5 Norte 0 1014 -0.8 74
2019-10-09 02:00:00 19.3 0 Calma 4 Noroeste 0 1014.2 -0.6 73
2019-10-09 01:00:00 19.7 0 Calma 5 Nordeste 0 1014.4 -0.1 72
2019-10-09 00:00:00 20.1 2 Norte 6 Nordeste 0 1014.8 0.1 71
2019-10-08 23:00:00 20.6 0 Calma 5 Norte 0 1014.8 0.3 69
2019-10-08 22:00:00 21.6 3 Nordeste 6 Nordeste 0 1014.5 -0.1 65
2019-10-08 21:00:00 22 4 Norte 6 Norte 0 1014.7 0 64
2019-10-08 20:00:00 22.5 3 Sudeste 14 Sur 0 1014.5 -0.5 61
2019-10-08 19:00:00 23.5 8 Sur 17 Sudeste 0 1014.6 -0.9 58
2019-10-08 18:00:00 24.7 9 Sur 20 Sudoeste 0 1014.7 -1.2 53
2019-10-08 17:00:00 25.6 10 Sur 20 Sudoeste 0 1015 -1.5 50
2019-10-08 16:00:00 25.6 9 Sur 20 Sudeste 0 1015.5 -1.6 50
2019-10-08 15:00:00 25.6 9 Sur 19 Sudeste 0 1015.9 -1.4 48
2019-10-08 14:00:00 24 11 Sudeste 24 Sudeste 0 1016.5 -0.8 59
2019-10-08 13:00:00 23.8 11 Sudeste 23 Sur 0 1017.1 0.2 63
2019-10-08 12:00:00 25.9 9 Sur 20 Sur 0 1017.3 1 57
2019-10-08 11:00:00 25.9 9 Sur 20 Sudeste 0 1017.3 1.4 56
2019-10-08 10:00:00 24.8 12 Sudeste 17 Sudeste 0 1016.9 1.4 58
2019-10-08 09:00:00 24.2 6 Sudeste 12 Sudeste 0 1016.3 1.2 63
2019-10-08 08:00:00 23 5 Sudeste 10 Sudeste 0 1015.9 1 70
2019-10-08 07:00:00 23.1 5 Sur 12 Sudeste 0 1015.5 0.7 72
2019-10-08 06:00:00 22.8 6 Sudeste 10 Sudeste 0 1015.1 0.3 74
2019-10-08 05:00:00 22.5 4 Este 8 Sudeste 0 1014.9 0.2 74
2019-10-08 04:00:00 22.8 4 Este 7 Sudeste 0 1014.8 -0.1 73
2019-10-08 03:00:00 22.9 3 Nordeste 6 Noroeste 0 1014.8 -0.2 73
2019-10-08 02:00:00 23 3 Oeste 5 Sur 0 1014.7 0 73
2019-10-08 01:00:00 23.1 3 Sudeste 10 Sur 0 1014.9 0.6 73
2019-10-08 00:00:00 23.2 6 Sudeste 14 Sudeste 0 1015 1.3 73
2019-10-07 23:00:00 22.9 2 Nordeste 5 Nordeste 0 1014.7 1.4 74
2019-10-07 22:00:00 23 3 Este 8 Este 0 1014.3 1.4 74
2019-10-07 21:00:00 23.3 3 Este 9 Este 0 1013.7 1.2 73
2019-10-07 20:00:00 23.8 6 Este 13 Sudeste 0 1013.3 1.2 70
2019-10-07 19:00:00 24.4 8 Este 20 Sudeste 0 1012.9 1.1 66
2019-10-07 18:00:00 25.5 13 Sudeste 28 Sudeste 0 1012.5 0.9 60
2019-10-07 17:00:00 26.9 19 Sudeste 27 Sudeste 0 1012.1 0.4 54
2019-10-07 16:00:00 28.8 8 Sudeste 19 Sur 0 1011.8 -0.4 32
2019-10-07 15:00:00 28.8 10 Sur 20 Sur 0 1011.6 -1 36
2019-10-07 14:00:00 29.3 9 Sur 18 Sur 0 1011.7 -0.9 31
2019-10-07 13:00:00 28.5 9 Sur 17 Sur 0 1012.2 -0.1 33
2019-10-07 12:00:00 28 7 Sur 17 Sur 0 1012.6 0.7 36
2019-10-07 11:00:00 26.8 6 Sur 15 Sudeste 0 1012.6 1.3 60
2019-10-07 10:00:00 25.4 6 Sudeste 23 Nordeste 0 1012.3 1.2 62
2019-10-07 09:00:00 20.6 3 Sudoeste 8 Sudeste 0 1011.9 0.7 75
2019-10-07 08:00:00 19.2 4 Nordeste 8 Nordeste 0 1011.3 -0.2 73
2019-10-07 07:00:00 18.9 3 Nordeste 9 Nordeste 0 1011.1 -1 73
2019-10-07 06:00:00 18.9 4 Nordeste 8 Norte 0 1011.2 -1.6 73
2019-10-07 05:00:00 19 0 Calma 6 Norte 0 1011.5 -1.6 70
2019-10-07 04:00:00 19.3 0 Calma 7 Norte 0 1012.1 -1.3 68
2019-10-07 03:00:00 19.9 0 Calma 9 Nordeste 0 1012.8 -0.9 68
2019-10-07 02:00:00 19.9 4 Nordeste 6 Nordeste 0 1013.1 -0.9 71
2019-10-07 01:00:00 19.8 0 Calma 6 Norte 0 1013.4 -0.2 66
2019-10-07 00:00:00 20.3 3 Nordeste 6 Nordeste 0 1013.7 0.6 70
2019-10-06 23:00:00 21.3 4 Norte 6 Norte 0 1014 1 76
2019-10-06 22:00:00 21.7 2 Sudoeste 8 Oeste 0 1013.6 0.5 76
2019-10-06 21:00:00 22.2 5 Oeste 9 Sudoeste 0 1013.1 -0.1 78
2019-10-06 20:00:00 23.1 3 Sudoeste 13 Sur 0 1013 -0.4 74
2019-10-06 19:00:00 24.3 4 Sudoeste 14 Sur 0 1013.1 -0.5 68
2019-10-06 18:00:00 24.6 9 Sur 18 Sudoeste 0 1013.2 -0.9 67
2019-10-06 17:00:00 26.1 8 Sur 15 Sur 0 1013.4 -1 61
2019-10-06 16:00:00 26.3 8 Sur 17 Sur 0 1013.6 -1 62
2019-10-06 15:00:00 26.2 8 Sur 18 Sur 0 1014.1 -0.6 59
2019-10-06 14:00:00 26.1 9 Sur 18 Sur 0 1014.4 -0.3 61
2019-10-06 13:00:00 26.3 8 Sur 14 Sur 0 1014.6 0.3 56
2019-10-06 12:00:00 26.3 5 Sur 10 Sur 0 1014.7 0.9 53
2019-10-06 11:00:00 24.9 4 Sur 9 Sudoeste 0 1014.7 1.8 63
2019-10-06 10:00:00 24.2 2 Sur 10 Sudoeste 0 1014.3 1.5 71
2019-10-06 09:00:00 19.8 7 Nordeste 9 Nordeste 0 1013.8 1.1 76
2019-10-06 08:00:00 18.6 6 Nordeste 10 Nordeste 0 1012.9 0.4 74
2019-10-06 07:00:00 19.2 4 Nordeste 10 Nordeste 0 1012.8 0 77
2019-10-06 06:00:00 18 2 Oeste 8 Nordeste 0 1012.7 -0.2 75
2019-10-06 05:00:00 19.4 4 Nordeste 10 Norte 0 1012.5 -0.3 73
2019-10-06 04:00:00 19.1 6 Norte 8 Norte 0 1012.8 0 71
2019-10-06 03:00:00 19.3 3 Nordeste 7 Nordeste 0 1012.9 -0.2 73
2019-10-06 02:00:00 19.5 0 Calma 8 Nordeste 0 1012.8 -0.1 74
2019-10-06 01:00:00 20.6 3 Nordeste 7 Nordeste 0 1012.8 0.4 75
2019-10-06 00:00:00 20.8 6 Norte 9 Noroeste 0 1013.1 1.2 75
2019-10-05 23:00:00 21.1 3 Este 6 Nordeste 0 1012.9 1.4 76
2019-10-05 22:00:00 21.7 0 Calma 5 Sudeste 0 1012.4 1.1 75
2019-10-05 21:00:00 22.2 4 Este 6 Este 0 1011.9 0.8 73
2019-10-05 20:00:00 23 2 Sudeste 7 Sudeste 0 1011.5 0.5 73
2019-10-05 19:00:00 24.1 4 Sudeste 12 Sudeste 0 1011.3 0 53
2019-10-05 18:00:00 25.6 6 Sur 13 Sudoeste 0 1011.1 -0.6 48
2019-10-05 17:00:00 26.2 7 Sur 14 Sur 0 1011 -1 55
2019-10-05 16:00:00 26.6 8 Sur 17 Sudoeste 0 1011.3 -0.9 56
2019-10-05 15:00:00 26.6 7 Sur 15 Sudeste 0 1011.7 -0.4 55
2019-10-05 14:00:00 26.7 8 Sur 17 Sur 0 1012 0.1 47
2019-10-05 13:00:00 26.7 8 Sudeste 13 Sur 0 1012.2 0.7 46
2019-10-05 12:00:00 26.1 3 Sudoeste 12 Sudoeste 0 1012.1 1.1 56
2019-10-05 11:00:00 25 6 Sur 10 Sur 0 1011.9 1.3 60
2019-10-05 10:00:00 25.1 3 Sudeste 6 Este 0 1011.5 0.9 60
2019-10-05 09:00:00 20.4 0 Calma 11 Nordeste 0 1011 0.3 67
2019-10-05 08:00:00 17.9 2 Norte 10 Norte 0 1010.6 -0.2 68
2019-10-05 07:00:00 18.2 3 Nordeste 9 Nordeste 0 1010.6 -0.2 69
2019-10-05 06:00:00 18 0 Calma 8 Nordeste 0 1010.7 -0.4 69
2019-10-05 05:00:00 18.3 0 Calma 6 Nordeste 0 1010.8 -0.3 73
2019-10-05 04:00:00 18.8 3 Nordeste 9 Nordeste 0 1010.8 -0.7 72
2019-10-05 03:00:00 19.4 6 Nordeste 8 Nordeste 0 1011.1 -0.5 68
2019-10-05 02:00:00 20 4 Norte 8 Norte 0 1011.1 -0.6 68
2019-10-05 01:00:00 19.5 0 Calma 6 Nordeste 0 1011.5 -0.2 67
2019-10-05 00:00:00 20.3 2 Nordeste 8 Nordeste 0 1011.6 0 66
2019-10-04 23:00:00 20.7 0 Calma 6 Nordeste 0 1011.7 0.1 65
2019-10-04 22:00:00 21.9 4 Nordeste 9 Nordeste 0 1011.7 0.2 70
2019-10-04 21:00:00 22.4 4 Este 9 Sudeste 0 1011.6 -0.2 69
2019-10-04 20:00:00 23.6 3 Sudeste 8 Sur 0 1011.6 -0.4 61
2019-10-04 19:00:00 25.1 4 Sudeste 10 Sudoeste 0 1011.5 -0.9 51
2019-10-04 18:00:00 26 8 Sudoeste 13 Sudoeste 0 1011.8 -1.2 51
2019-10-04 17:00:00 26.6 7 Sur 14 Sudoeste 0 1012 -1.6 51
2019-10-04 16:00:00 27 9 Sudoeste 15 Sur 0 1012.4 -1.5 46
2019-10-04 15:00:00 26.7 9 Sudeste 17 Sur 0 1013 -1 39
2019-10-04 14:00:00 27.6 10 Sur 19 Sudeste 0 1013.6 -0.7 36
2019-10-04 13:00:00 27.4 9 Sudeste 18 Sudeste 0 1013.9 -0.1 33
2019-10-04 12:00:00 27.3 8 Sudeste 14 Sudeste 0 1014 0.5 34
2019-10-04 11:00:00 27.1 5 Sudeste 10 Sur 0 1014.3 1.2 37
2019-10-04 10:00:00 25.4 2 Sudeste 5 Sudeste 0 1014 1.4 48
2019-10-04 09:00:00 21 3 Norte 12 Norte 0 1013.5 1.1 53
2019-10-04 08:00:00 18.9 6 Norte 8 Norte 0 1013.1 0.5 60
2019-10-04 07:00:00 18.4 3 Nordeste 8 Nordeste 0 1012.6 0 59
2019-10-04 06:00:00 18.4 2 Nordeste 8 Norte 0 1012.4 -0.6 54
2019-10-04 05:00:00 18.2 2 Nordeste 8 Nordeste 0 1012.6 -0.5 62
2019-10-04 04:00:00 18.8 3 Nordeste 11 Norte 0 1012.6 -1 61
2019-10-04 03:00:00 19.3 2 Este 8 Norte 0 1013 -0.7 59
2019-10-04 02:00:00 19.2 3 Este 7 Nordeste 0 1013.1 -0.3 62
2019-10-04 01:00:00 20.3 2 Noroeste 12 Norte 0 1013.6 0.5 61
2019-10-04 00:00:00 20.8 5 Norte 8 Nordeste 0 1013.7 1 59
2019-10-03 23:00:00 21.2 4 Este 8 Nordeste 0 1013.4 0.8 53
2019-10-03 22:00:00 21.7 4 Norte 8 Norte 0 1013.1 0.6 53
2019-10-03 21:00:00 23 4 Nordeste 6 Nordeste 0 1012.7 -0.1 50
2019-10-03 20:00:00 23.9 2 Noroeste 8 Oeste 0 1012.6 -0.3 46
2019-10-03 19:00:00 25.1 2 Oeste 10 Oeste 0 1012.5 -0.7 43
2019-10-03 18:00:00 25.1 4 Sur 15 Sur 0 1012.8 -0.6 55
2019-10-03 17:00:00 26.2 10 Sur 20 Sur 0 1012.9 -0.7 63
2019-10-03 16:00:00 26 12 Sur 22 Sur 0 1013.2 -0.8 55
2019-10-03 15:00:00 27.8 10 Sur 19 Sur 0 1013.4 -0.9 37
2019-10-03 14:00:00 27.6 8 Sur 19 Sur 0 1013.6 -0.8 34
2019-10-03 13:00:00 27 10 Sudeste 19 Sudeste 0 1014 -0.1 43
2019-10-03 12:00:00 27.3 7 Sudeste 15 Sudeste 0 1014.3 0.6 28
2019-10-03 11:00:00 27.4 3 Sudoeste 8 Sur 0 1014.4 1.3 26
2019-10-03 10:00:00 25 3 Oeste 11 Noroeste 0 1014.1 1.3 30
2019-10-03 09:00:00 20.4 6 Norte 12 Norte 0 1013.7 1.1 48
2019-10-03 08:00:00 19.4 5 Norte 10 Nordeste 0 1013.1 0.9 46
2019-10-03 07:00:00 20.1 4 Nordeste 13 Norte 0 1012.8 0.5 49
2019-10-03 06:00:00 19.8 4 Nordeste 11 Nordeste 0 1012.6 -0.1 43
2019-10-03 05:00:00 20.9 6 Nordeste 10 Nordeste 0 1012.2 -0.7 43
2019-10-03 04:00:00 20.9 5 Sur 12 Nordeste 0 1012.3 -0.8 49
2019-10-03 03:00:00 19.4 0 Calma 10 Norte 0 1012.7 -0.7 57
2019-10-03 02:00:00 20.4 4 Noroeste 10 Norte 0 1012.9 -0.2 54
2019-10-03 01:00:00 20.6 4 Norte 14 Noroeste 0 1013.1 0.4 51
2019-10-03 00:00:00 20.9 5 Noroeste 9 Norte 0 1013.4 1.1 58
2019-10-02 23:00:00 21.7 3 Norte 9 Norte 0 1013.1 1.5 61
2019-10-02 22:00:00 22.6 3 Norte 8 Norte 0 1012.7 1.8 62
2019-10-02 21:00:00 23.5 4 Norte 8 Oeste 0 1012.3 1.9 65
2019-10-02 20:00:00 23.9 4 Oeste 16 Sur 0 1011.6 1.2 70
2019-10-02 19:00:00 25.9 7 Sur 13 Sur 0 1010.9 0.4 48
2019-10-02 18:00:00 26.6 6 Sur 16 Sudoeste 0 1010.4 -0.2 58
2019-10-02 17:00:00 27.1 8 Sur 22 Sudoeste 0 1010.4 -0.5 53
2019-10-02 16:00:00 27 10 Sur 22 Sudeste 0 1010.5 -1 59
2019-10-02 15:00:00 26.9 12 Sudeste 20 Sudeste 0 1010.6 -1.5 58
2019-10-02 14:00:00 28 10 Sur 17 Sudeste 0 1010.9 -0.4 36
2019-10-02 13:00:00 28.7 8 Sur 17 Sudoeste 0 1011.5 0.6 27
2019-10-02 12:00:00 27.9 11 Sur 19 Sur 0 1012.1 1.8 33
2019-10-02 11:00:00 27.7 7 Oeste 14 Oeste 0 1011.3 1.4 31
2019-10-02 10:00:00 25 10 Oeste 17 Oeste 0 1010.9 1.5 38
2019-10-02 09:00:00 22.7 6 Noroeste 10 Norte 0 1010.3 1.2 44
2019-10-02 08:00:00 20.4 2 Oeste 12 Noroeste 0 1009.9 1 49
2019-10-02 07:00:00 21.4 7 Noroeste 11 Noroeste 0 1009.4 0.2 43
2019-10-02 06:00:00 21.7 5 Norte 11 Norte 0 1009.1 0.1 40
2019-10-02 05:00:00 23.1 7 Noroeste 12 Noroeste 0 1008.9 0 35
2019-10-02 04:00:00 23.7 4 Sudoeste 17 Sudoeste 0 1009.2 0.6 32
2019-10-02 03:00:00 23.3 6 Sudoeste 12 Sudoeste 0 1009 0.7 32
2019-10-02 02:00:00 23.7 3 Noroeste 12 Noroeste 0 1008.9 0.7 31
2019-10-02 01:00:00 27 12 Noroeste 40 Noroeste 0 1008.6 0.8 23
2019-10-02 00:00:00 27.5 16 Noroeste 35 Noroeste 0 1008.3 1.1 23
2019-10-01 23:00:00 27 14 Noroeste 28 Noroeste 0 1008.2 1.3 26
2019-10-01 22:00:00 23 2 Sur 8 Norte 0 1007.8 1.1 76
2019-10-01 21:00:00 23.8 2 Sur 11 Sudeste 0 1007.2 0.5 73
2019-10-01 20:00:00 24.2 5 Sudeste 12 Sudeste 0 1006.9 -0.3 73
2019-10-01 19:00:00 24.8 7 Este 11 Este 0 1006.7 -0.8 68
2019-10-01 18:00:00 26.1 6 Sudeste 12 Sur 0 1006.7 -1.3 62
2019-10-01 17:00:00 26.4 7 Sudeste 15 Sur 0 1007.2 -1.7 62
2019-10-01 16:00:00 26.7 7 Sur 18 Sur 0 1007.5 -2 60
2019-10-01 15:00:00 25.9 9 Sudoeste 20 Sur 0 1008 -1.7 65
2019-10-01 14:00:00 26.1 10 Sudoeste 19 Sur 0 1008.9 -1.1 63
2019-10-01 13:00:00 25.7 10 Sudoeste 20 Sudoeste 0 1009.5 -0.3 62
2019-10-01 12:00:00 25.4 9 Sur 15 Sur 0 1009.7 0.4 63
2019-10-01 11:00:00 24.1 4 Sudoeste 9 Sudoeste 0 1010 0.5 69
2019-10-01 10:00:00 22.7 4 Norte 8 Norte 0 1009.8 0.3 74
2019-10-01 09:00:00 21.2 4 Norte 11 Norte 0 1009.3 -0.4 74
2019-10-01 08:00:00 21.2 6 Noroeste 11 Noroeste 0 1009.5 -0.4 77
2019-10-01 07:00:00 21.4 5 Noroeste 9 Noroeste 0 1009.5 -0.9 78
2019-10-01 06:00:00 22 3 Noroeste 9 Noroeste 0 1009.7 -1.3 78
2019-10-01 05:00:00 21.6 5 Noroeste 8 Noroeste 0 1009.9 -1.7 79
2019-10-01 04:00:00 21.5 3 Norte 11 Nordeste 0 1010.4 -1.4 80
2019-10-01 03:00:00 22.1 5 Norte 12 Norte 0 1011 -1 79
2019-10-01 02:00:00 21.8 5 Norte 10 Nordeste 0 1011.6 -0.6 80
2019-10-01 01:00:00 21.6 2 Norte 6 Este 0 1011.8 -0.4 81
2019-10-01 00:00:00 22.1 5 Este 11 Este 0 1012 0.6 81
2019-09-30 23:00:00 22.2 5 Este 10 Este 0 1012.2 0.8 81
2019-09-30 22:00:00 22.6 3 Este 9 Este 0 1012.2 1.1 80
2019-09-30 21:00:00 23.1 4 Este 7 Sudeste 0 1011.4 0.5 78
2019-09-30 20:00:00 23.6 4 Sudeste 9 Sudeste 0 1011.4 0.1 75
2019-09-30 19:00:00 25 4 Sudoeste 14 Sur 0 1011.1 -0.6 68
2019-09-30 18:00:00 25.9 7 Sur 14 Sur 0 1010.9 -1.3 65
2019-09-30 17:00:00 26.6 8 Sudoeste 17 Sur 0 1011.3 -1.7 62
2019-09-30 16:00:00 26.6 8 Sur 17 Sur 0 1011.7 -2 62
2019-09-30 15:00:00 26.1 8 Sur 17 Sudoeste 0 1012.2 -1.5 64
2019-09-30 14:00:00 26.1 7 Sur 17 Sur 0 1013 -0.7 64
2019-09-30 13:00:00 26.1 9 Sudoeste 17 Sudoeste 0 1013.7 0.4 62
2019-09-30 12:00:00 26.2 9 Sur 15 Sudoeste 0 1013.7 1 64
2019-09-30 11:00:00 26.5 2 Sur 10 Sur 0 1013.7 1.2 65
2019-09-30 10:00:00 24 0 Calma 8 Noroeste 0 1013.3 0.9 76
2019-09-30 09:00:00 21.4 4 Norte 9 Noroeste 0 1012.7 0.3 82
2019-09-30 08:00:00 21.3 4 Norte 8 Norte 0 1012.5 0.1 81
2019-09-30 07:00:00 20.6 4 Norte 9 Nordeste 0 1012.4 -0.4 77
2019-09-30 06:00:00 21 0 Calma 8 Nordeste 0 1012.4 -0.6 80
2019-09-30 05:00:00 20.8 3 Nordeste 9 Nordeste 0 1012.4 -0.8 78
2019-09-30 04:00:00 21.2 3 Nordeste 7 Nordeste 0 1012.8 -0.6 81
2019-09-30 03:00:00 21.3 3 Este 6 Nordeste 0 1013 -0.5 80
2019-09-30 02:00:00 21.7 4 Norte 8 Nordeste 0 1013.2 -0.4 78
2019-09-30 01:00:00 21.7 4 Norte 6 Norte 0 1013.4 0.1 78
2019-09-30 00:00:00 22 2 Norte 6 Norte 0 1013.5 0.6 76
2019-09-29 23:00:00 22.4 3 Norte 6 Noroeste 0 1013.6 0.9 77
2019-09-29 22:00:00 22.9 0 Calma 5 Noroeste 0 1013.3 0.5 77
2019-09-29 21:00:00 23.4 3 Noroeste 8 Oeste 0 1012.9 -0.3 75
2019-09-29 20:00:00 24.2 3 Sudoeste 10 Sudoeste 0 1012.7 -0.9 71
2019-09-29 19:00:00 25.2 4 Sur 14 Sur 0 1012.8 -1 67
2019-09-29 18:00:00 26 6 Sudoeste 16 Sur 0 1013.2 -1.2 64
2019-09-29 17:00:00 26.7 6 Sur 19 Sur 0 1013.6 -1.8 61
2019-09-29 16:00:00 26.9 9 Sur 18 Sudoeste 0 1013.8 -1.9 61
2019-09-29 15:00:00 26.7 7 Sur 19 Sur 0 1014.4 -1.5 62
2019-09-29 14:00:00 26.4 10 Sur 19 Sur 0 1015.4 -0.4 61
2019-09-29 13:00:00 26.1 11 Sur 19 Sur 0 1015.7 0.4 61
2019-09-29 12:00:00 26.1 10 Sur 15 Sur 0 1015.9 1.3 59
2019-09-29 11:00:00 26.2 5 Sudoeste 11 Sudoeste 0 1015.8 1.4 59
2019-09-29 10:00:00 24.7 3 Sudoeste 7 Oeste 0 1015.3 1.2 66
2019-09-29 09:00:00 22.1 4 Nordeste 11 Nordeste 0 1014.6 0.2 73
2019-09-29 08:00:00 20.4 2 Este 6 Nordeste 0 1014.4 -0.4 79
2019-09-29 07:00:00 21.1 2 Nordeste 12 Norte 0 1014.1 -1 77
2019-09-29 06:00:00 22.2 3 Noroeste 6 Norte 0 1014.4 -1 78
2019-09-29 05:00:00 22.3 3 Norte 5 Norte 0 1014.8 -0.8 79
2019-09-29 04:00:00 22 3 Nordeste 5 Nordeste 0 1015.1 -0.8 78
2019-09-29 03:00:00 22.5 3 Nordeste 6 Este 0 1015.4 -0.6 78
2019-09-29 02:00:00 22.6 2 Nordeste 4 Norte 0 1015.6 -0.3 77
2019-09-29 01:00:00 22.4 3 Norte 8 Norte 0 1015.9 0.5 77
2019-09-29 00:00:00 22.7 4 Norte 8 Noroeste 0 1016 0.7 76
2019-09-28 23:00:00 23.1 4 Norte 7 Nordeste 0 1015.9 1 75
2019-09-28 22:00:00 23.2 6 Este 10 Este 0 1015.4 0.4 77
2019-09-28 21:00:00 23.5 4 Este 13 Este 0 1015.3 0.3 75
2019-09-28 20:00:00 24 7 Este 17 Sudeste 0 1014.9 -0.1 72
2019-09-28 19:00:00 25 11 Sudeste 17 Sudeste 0 1015 -0.4 69
2019-09-28 18:00:00 26 9 Sudeste 20 Sur 0 1015 -0.8 65
2019-09-28 17:00:00 26.9 9 Sur 20 Sur 0 1015 -1.6 60
2019-09-28 16:00:00 26.8 11 Sudeste 22 Sudeste 0 1015.4 -1.5 62
2019-09-28 15:00:00 26.4 12 Sudeste 22 Sudeste 0 1015.8 -1.2 65
2019-09-28 14:00:00 26.4 13 Sudeste 23 Sudeste 0 1016.6 0 64
2019-09-28 13:00:00 26.6 13 Sudeste 23 Este 0 1016.9 0.8 62
2019-09-28 12:00:00 26.3 14 Sudeste 23 Sudeste 0 1017 1.7 65
2019-09-28 11:00:00 26.2 6 Sudeste 12 Sudeste 0 1016.6 2.1 66
2019-09-28 10:00:00 25.6 2 Sudoeste 5 Oeste 0 1016.1 2.1 66
2019-09-28 09:00:00 22.3 0 Calma 5 Nordeste 0 1015.3 1.6 75
2019-09-28 08:00:00 20.3 3 Norte 6 Norte 0 1014.5 0.5 78
2019-09-28 07:00:00 20.1 4 Norte 6 Norte 0 1014 0.1 76
2019-09-28 06:00:00 20.6 4 Norte 7 Norte 0 1013.7 -0.9 75
2019-09-28 05:00:00 20.6 0 Calma 6 Este 0 1014 -0.9 76
2019-09-28 04:00:00 21.1 0 Calma 8 Nordeste 0 1013.9 -1.3 76
2019-09-28 03:00:00 21.5 4 Nordeste 7 Nordeste 0 1014.6 -0.7 79
2019-09-28 02:00:00 22 4 Nordeste 7 Norte 0 1014.9 -0.1 79
2019-09-28 01:00:00 22.2 3 Norte 6 Norte 0 1015.2 0.6 80
2019-09-28 00:00:00 22.4 3 Noroeste 5 Noroeste 0 1015.3 1.4 80
2019-09-27 23:00:00 22.8 4 Noroeste 6 Oeste 0 1015 1.4 80
2019-09-27 22:00:00 23.1 3 Sudoeste 8 Oeste 0 1014.6 1.3 79
2019-09-27 21:00:00 23.5 3 Sudoeste 8 Oeste 0 1013.9 0.7 77
2019-09-27 20:00:00 24.1 3 Sudoeste 12 Sudoeste 0 1013.6 0.3 74
2019-09-27 19:00:00 25.1 7 Sur 13 Sudoeste 0 1013.3 -0.3 70
2019-09-27 18:00:00 26.3 6 Sudoeste 17 Sur 0 1013.2 -1.2 65
2019-09-27 17:00:00 26.5 7 Sur 19 Sudoeste 0 1013.3 -1.7 62
2019-09-27 16:00:00 26.6 10 Sur 20 Sudoeste 0 1013.6 -1.6 64
2019-09-27 15:00:00 26.8 10 Sudoeste 19 Sudoeste 0 1014.4 -1.1 62
2019-09-27 14:00:00 26.6 8 Sur 22 Sur 0 1015 -0.6 64
2019-09-27 13:00:00 26.6 10 Sur 19 Sur 0 1015.2 -0.3 61
2019-09-27 12:00:00 26.4 6 Sudoeste 13 Sudoeste 0 1015.5 0.5 61
2019-09-27 11:00:00 26.2 5 Sur 10 Sur 0 1015.6 0.8 64
2019-09-27 10:00:00 25.2 3 Sur 6 Sur 0 1015.5 1.1 68
2019-09-27 09:00:00 22.4 2 Norte 8 Nordeste 0 1015 0.5 80
2019-09-27 08:00:00 21.5 4 Norte 7 Norte 0 1014.8 0.3 82
2019-09-27 07:00:00 21.7 0 Calma 7 Norte 0 1014.4 -0.3 82
2019-09-27 06:00:00 21.2 0 Calma 5 Noroeste 0 1014.5 -0.6 82
2019-09-27 05:00:00 21.4 2 Norte 6 Nordeste 0 1014.5 -0.8 80
2019-09-27 04:00:00 21.9 3 Nordeste 6 Nordeste 0 1014.7 -1.2 81
2019-09-27 03:00:00 21.7 3 Norte 5 Noroeste 0 1015.1 -0.8 80
2019-09-27 02:00:00 22.3 3 Norte 8 Norte 0 1015.3 -0.6 79
2019-09-27 01:00:00 22.5 3 Norte 5 Noroeste 0 1015.9 0.5 80
2019-09-27 00:00:00 22.8 3 Este 5 Este 0 1015.9 1.1 79
2019-09-26 23:00:00 23.1 2 Este 6 Nordeste 0 1015.9 1.5 78
2019-09-26 22:00:00 23.5 4 Este 8 Sudeste 0 1015.4 1.1 76
2019-09-26 21:00:00 23.7 4 Sudeste 9 Sudeste 0 1014.8 0.7 77
2019-09-26 20:00:00 24.2 5 Sudeste 17 Sudeste 0 1014.4 0 74
2019-09-26 19:00:00 25.1 8 Sudeste 22 Sudeste 0 1014.3 -0.4 69
2019-09-26 18:00:00 26 14 Sudeste 24 Sudeste 0 1014.1 -0.8 66
2019-09-26 17:00:00 26.9 14 Sudeste 26 Sudeste 0 1014.4 -1.1 62
2019-09-26 16:00:00 26.6 14 Sudeste 26 Sudeste 0 1014.7 -1.4 61
2019-09-26 15:00:00 26.9 16 Sudeste 28 Sudeste 0 1014.9 -1.3 57
2019-09-26 14:00:00 27.1 16 Sudeste 26 Sudeste 0 1015.5 -0.5 54
2019-09-26 13:00:00 27 14 Sudeste 23 Sudeste 0 1016.1 0.6 54
2019-09-26 12:00:00 27.1 13 Sudeste 23 Sur 0 1016.2 1.3 52
2019-09-26 11:00:00 27.5 8 Sudeste 17 Este 0 1016 1.5 51
2019-09-26 10:00:00 26.1 6 Sudeste 14 Sudeste 0 1015.5 1.5 54
2019-09-26 09:00:00 22.6 0 Calma 6 Sudoeste 0 1014.9 1.1 62
2019-09-26 08:00:00 19.8 0 Calma 6 Norte 0 1014.5 0.9 67
2019-09-26 07:00:00 20.2 2 Nordeste 9 Nordeste 0 1014 0.6 64
2019-09-26 06:00:00 20 0 Calma 5 Norte 0 1013.8 0.3 65
2019-09-26 05:00:00 20.5 4 Noroeste 7 Norte 0 1013.6 0 64
2019-09-26 04:00:00 20.9 3 Norte 10 Norte 0 1013.4 -0.1 60
2019-09-26 03:00:00 21.2 3 Este 6 Este 0 1013.5 0.1 60
2019-09-26 02:00:00 21.2 0 Calma 6 Norte 0 1013.6 0.6 60
2019-09-26 01:00:00 21.9 4 Noroeste 6 Noroeste 0 1013.5 1 57
2019-09-26 00:00:00 22.1 0 Calma 6 Noroeste 0 1013.4 1.5 59
2019-09-25 23:00:00 23.3 3 Oeste 5 Sudoeste 0 1013 1.5 56
2019-09-25 22:00:00 24.6 3 Sudoeste 9 Nordeste 0 1012.5 1.3 50
2019-09-25 21:00:00 25.5 4 Nordeste 13 Este 0 1011.9 0.8 44
2019-09-25 20:00:00 26.2 7 Este 13 Nordeste 0 1011.5 0.4 43
2019-09-25 19:00:00 27.4 9 Sudeste 15 Sudeste 0 1011.2 0.1 37
2019-09-25 18:00:00 28.1 5 Este 14 Este 0 1011.1 -0.6 44
2019-09-25 17:00:00 28.5 6 Sudeste 15 Sudeste 0 1011.1 -0.9 33
2019-09-25 16:00:00 28.1 7 Sudeste 15 Sur 0 1011.1 -1.4 37
2019-09-25 15:00:00 27.5 11 Sudoeste 18 Sudoeste 0 1011.7 -1.2 54
2019-09-25 14:00:00 28.1 9 Sur 17 Sur 0 1012 -0.5 51
2019-09-25 13:00:00 27.9 10 Sur 17 Sudeste 0 1012.5 0.5 44
2019-09-25 12:00:00 27.9 8 Sur 14 Sudeste 0 1012.9 1.3 50
2019-09-25 11:00:00 27.9 8 Sudeste 13 Sudeste 0 1012.5 1.6 47
2019-09-25 10:00:00 26.9 4 Sur 10 Este 0 1012 1.1 55
2019-09-25 09:00:00 23.1 3 Nordeste 10 Nordeste 0 1011.6 1 61
2019-09-25 08:00:00 20.6 5 Nordeste 15 Oeste 0 1010.9 0.5 77
2019-09-25 07:00:00 20.4 6 Nordeste 10 Nordeste 0 1010.9 0.2 77
2019-09-25 06:00:00 21 6 Nordeste 11 Nordeste 0 1010.6 -0.5 74
2019-09-25 05:00:00 20.6 3 Este 8 Nordeste 0 1010.4 -0.8 70
2019-09-25 04:00:00 21.1 4 Nordeste 7 Nordeste 0 1010.7 -0.9 66
2019-09-25 03:00:00 21 4 Norte 8 Norte 0 1011.1 -0.8 65
2019-09-25 02:00:00 21.5 0 Calma 10 Norte 0 1011.2 -0.8 64
2019-09-25 01:00:00 21.5 4 Norte 8 Norte 0 1011.6 -0.3 64
2019-09-25 00:00:00 22.4 4 Nordeste 7 Nordeste 0 1011.9 0.1 70
2019-09-24 23:00:00 22.7 6 Este 12 Este 0 1012 0.1 72
2019-09-24 22:00:00 23.1 7 Este 10 Este 0 1011.9 0 69
2019-09-24 21:00:00 23.9 4 Este 8 Sudeste 0 1011.8 -0.5 63
2019-09-24 20:00:00 24.6 4 Sudeste 12 Sudeste 0 1011.9 -0.9 62
2019-09-24 19:00:00 26.1 5 Sudeste 12 Este 0 1011.9 -1.5 58
2019-09-24 18:00:00 26.9 5 Sudeste 13 Sudeste 0 1012.3 -1.6 53
2019-09-24 17:00:00 27.7 5 Sudoeste 15 Sur 0 1012.8 -2 50
2019-09-24 16:00:00 27.4 9 Sur 17 Sur 0 1013.4 -2 51
2019-09-24 15:00:00 26.8 8 Sur 19 Sur 0 1013.9 -1.6 50
2019-09-24 14:00:00 27.1 9 Sudoeste 23 Sudoeste 0 1014.8 -0.9 47
2019-09-24 13:00:00 27.2 11 Sur 19 Sur 0 1015.4 0.2 48
2019-09-24 12:00:00 27.7 5 Sudeste 11 Sudeste 0 1015.5 0.7 42
2019-09-24 11:00:00 27.1 5 Sur 10 Sudeste 0 1015.7 1 43
2019-09-24 10:00:00 26.2 3 Sur 7 Sudeste 0 1015.2 0.6 44
2019-09-24 09:00:00 21.6 0 Calma 8 Sudeste 0 1014.8 0.4 64
2019-09-24 08:00:00 19.5 2 Norte 7 Noroeste 0 1014.7 0 69
2019-09-24 07:00:00 19.5 5 Noroeste 7 Noroeste 0 1014.6 -0.4 67
2019-09-24 06:00:00 20 0 Calma 8 Norte 0 1014.4 -1.2 66
2019-09-24 05:00:00 20.3 4 Norte 8 Norte 0 1014.7 -1.3 64
2019-09-24 04:00:00 20.2 3 Nordeste 8 Noroeste 0 1015 -1.1 65
2019-09-24 03:00:00 20.7 5 Noroeste 12 Noroeste 0 1015.6 -0.9 61
2019-09-24 02:00:00 21.2 7 Noroeste 11 Noroeste 0 1016 -0.6 62
2019-09-24 01:00:00 21.1 6 Noroeste 9 Noroeste 0 1016.1 -0.3 66
2019-09-24 00:00:00 22.2 3 Norte 7 Noroeste 0 1016.5 0.6 65
2019-09-23 23:00:00 23.4 3 Nordeste 7 Norte 0 1016.6 1.2 60
2019-09-23 22:00:00 23.9 0 Calma 5 Sudoeste 0 1016.4 1.2 58
2019-09-23 21:00:00 24.3 2 Sur 8 Sudoeste 0 1015.9 1 56
2019-09-23 20:00:00 25.1 3 Sudoeste 11 Sudoeste 0 1015.4 0.5 51
2019-09-23 19:00:00 26.1 5 Sur 14 Sur 0 1015.2 0.3 46
2019-09-23 18:00:00 27.1 8 Sur 15 Sudeste 0 1014.9 -0.4 32
2019-09-23 17:00:00 28.3 10 Sudoeste 18 Sudoeste 0 1014.9 -0.8 33
2019-09-23 16:00:00 27.8 8 Sudoeste 20 Sudoeste 0 1014.9 -1.1 39
2019-09-23 15:00:00 27.2 11 Sur 22 Sudoeste 0 1015.3 -0.9 42
2019-09-23 14:00:00 27.7 10 Sur 18 Sudoeste 0 1015.7 -0.5 41
2019-09-23 13:00:00 27.4 9 Sur 18 Sudeste 0 1016 0.4 43
2019-09-23 12:00:00 26.5 11 Sur 19 Sudeste 0 1016.2 1 49
2019-09-23 11:00:00 25.8 10 Sudeste 17 Sudeste 0 1016.2 1.6 53
2019-09-23 10:00:00 26.7 5 Sudeste 11 Sudeste 0 1015.6 1.7 41
2019-09-23 09:00:00 22.8 5 Noroeste 9 Noroeste 0 1015.2 2.3 52
2019-09-23 08:00:00 21.4 4 Norte 12 Norte 0 1014.6 2 58
2019-09-23 07:00:00 21.5 4 Noroeste 11 Norte 0 1013.9 1.5 76
2019-09-23 06:00:00 21.9 7 Nordeste 10 Este 0 1012.9 0.5 79
2019-09-23 05:00:00 21.9 3 Nordeste 8 Nordeste 0 1012.6 0.4 78
2019-09-23 04:00:00 22 3 Sudeste 5 Noroeste 0 1012.4 0.5 79
2019-09-23 03:00:00 22.2 4 Noroeste 8 Noroeste 0 1012.4 0.8 78
2019-09-23 02:00:00 22.3 2 Norte 5 Nordeste 0 1012.2 0.8 76
2019-09-23 01:00:00 23 2 Este 9 Este 0 1011.9 1.1 80
2019-09-23 00:00:00 23.3 2 Noroeste 9 Este 0 1011.6 1.6 79
2019-09-22 23:00:00 23.8 4 Este 9 Sudeste 0 1011.4 1.8 76
2019-09-22 22:00:00 24.3 4 Sudeste 9 Sudeste 0 1010.8 1.5 72
2019-09-22 21:00:00 24.4 5 Este 10 Este 0 1010 0.9 72
2019-09-22 20:00:00 25.2 5 Sudeste 12 Sudeste 0 1009.6 0 67
2019-09-22 19:00:00 26.2 4 Sudeste 20 Sudoeste 0 1009.3 -0.2 63
2019-09-22 18:00:00 28 10 Sur 23 Sudoeste 0 1009.1 0 55
2019-09-22 17:00:00 29.1 10 Sudoeste 23 Sur 0 1009.6 -0.1 46
2019-09-22 16:00:00 29.8 11 Sur 22 Sur 0 1009.5 -0.5 44
2019-09-22 15:00:00 29 9 Sur 23 Sudoeste 0 1009.1 -1.5 50
2019-09-22 14:00:00 27.9 11 Sur 22 Sur 0 1009.7 -0.5 58
2019-09-22 13:00:00 28.6 10 Sur 18 Sur 0 1010 0.3 50
2019-09-22 12:00:00 27.8 7 Sur 15 Sudeste 0 1010.6 1.2 57
2019-09-22 11:00:00 27.4 5 Sudeste 13 Sudeste 0 1010.2 1.3 61
2019-09-22 10:00:00 25.7 2 Oeste 6 Norte 0 1009.7 1.2 69
2019-09-22 09:00:00 23.2 3 Sur 7 Oeste 0 1009.4 0.7 78
2019-09-22 08:00:00 22.2 2 Oeste 6 Sur 0 1008.9 0.4 79
2019-09-22 07:00:00 22.7 3 Nordeste 10 Norte 0 1008.5 -0.2 79
2019-09-22 06:00:00 22.8 3 Nordeste 9 Nordeste 0 1008.7 -0.5 79
2019-09-22 05:00:00 22.7 2 Nordeste 10 Norte 0 1008.5 -0.7 78
2019-09-22 04:00:00 23 2 Sudoeste 6 Noroeste 0 1008.7 -0.6 78
2019-09-22 03:00:00 23.5 4 Noroeste 8 Norte 0 1009.2 -0.6 77
2019-09-22 02:00:00 23.6 3 Noroeste 5 Este 0 1009.2 -0.5 79
2019-09-22 01:00:00 23.8 4 Este 8 Nordeste 0 1009.3 -0.2 78
2019-09-22 00:00:00 24.2 5 Este 10 Este 0 1009.8 0.7 77
2019-09-21 23:00:00 24.2 6 Este 14 Nordeste 0 1009.7 0.9 78
2019-09-21 22:00:00 24.2 8 Nordeste 14 Este 0 1009.5 0.3 78
2019-09-21 21:00:00 24.4 5 Este 12 Sudeste 0 1009.1 0 76
2019-09-21 20:00:00 25.1 4 Sur 11 Oeste 0 1008.8 -0.3 67
2019-09-21 19:00:00 25.4 6 Oeste 14 Sudoeste 0 1009.2 0.2 68
2019-09-21 18:00:00 25.3 6 Sudoeste 14 Sur 0 1009.1 -0.2 71
2019-09-21 17:00:00 25.7 10 Sur 17 Sudoeste 0 1009.1 -0.8 67
2019-09-21 16:00:00 26.2 10 Sur 19 Sur 0 1009 -1.4 65
2019-09-21 15:00:00 28 8 Sur 19 Sudoeste 0 1009.3 -1.5 57
2019-09-21 14:00:00 26.4 4 Sur 16 Sudoeste 0 1009.9 -1 63
2019-09-21 13:00:00 26.9 9 Sur 16 Sur 0 1010.4 0 60
2019-09-21 12:00:00 27.1 8 Sur 16 Sudeste 0 1010.8 0.9 59
2019-09-21 11:00:00 26.2 6 Sudoeste 12 Sudoeste 0 1010.9 1.6 63
2019-09-21 10:00:00 26.3 4 Sur 9 Sur 0 1010.4 1.3 59
2019-09-21 09:00:00 23.3 3 Noroeste 9 Noroeste 0 1009.9 1 71
2019-09-21 08:00:00 23.3 3 Norte 10 Noroeste 0 1009.3 0.7 71
2019-09-21 07:00:00 22.7 4 Noroeste 7 Norte 0 1009.1 -0.4 73
2019-09-21 06:00:00 22.7 5 Noroeste 8 Noroeste 0 1008.9 -0.7 73
2019-09-21 05:00:00 22.9 4 Norte 11 Norte 0 1008.6 -1.5 72
2019-09-21 04:00:00 23.5 2 Sur 5 Sudoeste 0 1009.5 -1.7 69
2019-09-21 03:00:00 23.9 2 Sur 17 Norte 0 1009.6 -1.4 66
2019-09-21 02:00:00 24.3 6 Nordeste 15 Norte 0 1010.1 -1.3 66
2019-09-21 01:00:00 24.3 4 Norte 12 Noroeste 0 1011.2 0.7 68
2019-09-21 00:00:00 24.2 6 Este 11 Nordeste 0 1011 0.2 69
2019-09-20 23:00:00 24.3 4 Nordeste 22 Este 0 1011.4 0.5 69
2019-09-20 22:00:00 24.5 13 Este 26 Este 0 1010.5 -0.2 68
2019-09-20 21:00:00 24.9 10 Este 24 Este 0 1010.8 0.1 65
2019-09-20 20:00:00 25.3 12 Este 31 Este 0 1010.9 0.2 64
2019-09-20 19:00:00 26.1 20 Este 33 Sudeste 0 1010.7 -0.4 63
2019-09-20 18:00:00 26.7 14 Este 32 Este 0 1010.7 -1.2 60
2019-09-20 17:00:00 26.4 13 Sudeste 30 Este 0 1010.7 -1.9 64
2019-09-20 16:00:00 27.4 18 Este 29 Sudeste 0 1011.1 -1.8 58
2019-09-20 15:00:00 26.6 18 Este 31 Sudeste 0 1011.9 -1 64
2019-09-20 14:00:00 26.3 19 Sudeste 33 Sudeste 0 1012.6 -0.6 67
2019-09-20 13:00:00 26.9 16 Sudeste 28 Este 0 1012.9 0.3 63
2019-09-20 12:00:00 27.1 14 Este 30 Este 0 1012.9 0.8 60
2019-09-20 11:00:00 26.8 17 Este 31 Este 0 1013.2 1.5 60
2019-09-20 10:00:00 25.4 13 Nordeste 25 Este 0 1012.6 0.6 63
2019-09-20 09:00:00 22.8 3 Noroeste 7 Noroeste 0 1012.1 -0.8 71
2019-09-20 08:00:00 22.3 3 Norte 11 Nordeste 0 1011.7 -2 70
2019-09-20 07:00:00 22.6 5 Este 16 Nordeste 0 1012 -1.6 71
2019-09-20 06:00:00 22.5 6 Nordeste 12 Nordeste 0 1012.9 -0.6 73
2019-09-20 05:00:00 22.1 4 Norte 7 Nordeste 0 1013.7 0.3 77
2019-09-20 04:00:00 22.3 2 Norte 5 Noroeste 0 1013.6 0.4 79
2019-09-20 03:00:00 22.5 3 Norte 8 Nordeste 0 1013.5 0.2 78
2019-09-20 02:00:00 22.7 3 Norte 7 Nordeste 0 1013.4 -0.2 81
2019-09-20 01:00:00 23.1 2 Sudeste 6 Este 0 1013.2 -0.3 81
2019-09-20 00:00:00 23.2 4 Este 8 Nordeste 0 1013.3 0.5 79